In Rescue
 
Open Full Screen Window  High Contrast Mode
Wind Gusting 00 knots
04
May 19, 2019 9:40 AM PDT
Weather Information
Wind Direction
  080 °
Wind Speed
  04 kt (5 mph)
Wind Gust
  00 kt (0 mph)
Altimeter
29.85 in
Visibility
10 SM
Temperature
09° C
48° F
Dewpoint
08° C
46° F
Humidity
94%
1hr Rain Fall
00.00 in.
24hr Rain Fall
00.59 in.
Sky Condition
Broken @ 3,600 ft
Scattered @ 1,400 ft
Few @ 100 ft
VFR

METAR KCVH 191640Z AUTO 08004KT 10SM FEW001 SCT014 BKN036 09/08 A2985 RMK A01

FAA Disclaimer: The data displayed is for advisory purposes only and is not to be used for flight planning or operations.